createdAt,value
2024-01-16T00:00:33.605Z,6.78
2024-01-16T00:03:38.486Z,6.93
2024-01-16T00:06:45.079Z,8.17
2024-01-16T00:09:52.472Z,7.07
2024-01-16T00:12:55.667Z,8.70
2024-01-16T00:15:58.956Z,8.30
2024-01-16T00:19:01.861Z,14.00
2024-01-16T00:22:06.250Z,17.10
2024-01-16T00:25:09.735Z,11.82
2024-01-16T00:28:12.503Z,13.57
2024-01-16T00:31:15.629Z,10.25
2024-01-16T00:34:18.763Z,11.60
2024-01-16T00:37:22.006Z,13.87
2024-01-16T00:40:25.048Z,14.05
2024-01-16T00:43:27.815Z,18.33
2024-01-16T00:46:30.815Z,19.57
2024-01-16T00:49:34.020Z,19.00
2024-01-16T00:52:37.061Z,23.52
2024-01-16T00:55:39.934Z,21.50
2024-01-16T00:58:42.886Z,21.35
2024-01-16T01:01:45.911Z,18.80
2024-01-16T01:04:49.275Z,19.80
2024-01-16T01:07:52.027Z,21.17
2024-01-16T01:10:54.882Z,19.63
2024-01-16T01:13:57.920Z,29.17
2024-01-16T01:17:00.963Z,23.67
2024-01-16T01:20:04.254Z,30.23
2024-01-16T01:23:07.319Z,34.58
2024-01-16T01:26:10.173Z,35.17
2024-01-16T01:29:13.344Z,33.60
2024-01-16T01:32:16.170Z,38.63
2024-01-16T01:35:21.229Z,34.92
2024-01-16T01:38:24.332Z,32.80
2024-01-16T01:41:27.386Z,28.17
2024-01-16T01:44:30.152Z,27.40
2024-01-16T01:47:34.171Z,38.97
2024-01-16T01:50:37.361Z,47.28
2024-01-16T01:53:41.322Z,30.02
2024-01-16T01:56:46.214Z,26.60
2024-01-16T01:59:49.458Z,27.75
2024-01-16T02:02:54.894Z,25.83
2024-01-16T02:05:58.030Z,23.05
2024-01-16T02:09:01.029Z,22.43
2024-01-16T02:12:03.957Z,22.67
2024-01-16T02:15:06.946Z,31.30
2024-01-16T02:18:10.065Z,24.03
2024-01-16T02:21:17.939Z,27.50
2024-01-16T02:24:20.951Z,24.05
2024-01-16T02:27:23.693Z,26.00
2024-01-16T02:30:26.687Z,22.50
2024-01-16T02:33:29.923Z,23.00
2024-01-16T02:36:33.885Z,21.35
2024-01-16T02:39:37.250Z,16.30
2024-01-16T02:42:40.152Z,15.93
2024-01-16T02:45:43.816Z,16.25
2024-01-16T02:48:47.931Z,15.13
2024-01-16T02:51:51.088Z,12.63
2024-01-16T02:54:54.125Z,10.43
2024-01-16T02:57:56.910Z,11.00
2024-01-16T03:00:59.975Z,11.90
2024-01-16T03:04:03.081Z,12.82
2024-01-16T03:07:06.467Z,11.00
2024-01-16T03:10:09.828Z,10.97
2024-01-16T03:13:12.648Z,12.57
2024-01-16T03:16:15.364Z,11.40
2024-01-16T03:19:18.372Z,14.13
2024-01-16T03:22:21.275Z,13.77
2024-01-16T03:25:24.000Z,13.80
2024-01-16T03:28:27.027Z,13.38
2024-01-16T03:31:30.189Z,13.70
2024-01-16T03:34:33.132Z,12.55
2024-01-16T03:37:36.310Z,15.50
2024-01-16T03:40:39.074Z,14.53
2024-01-16T03:43:42.216Z,13.25
2024-01-16T03:46:45.259Z,13.50
2024-01-16T03:49:48.041Z,13.93
2024-01-16T03:52:51.181Z,14.80
2024-01-16T03:55:53.912Z,20.15
2024-01-16T03:58:56.941Z,18.10
2024-01-16T04:02:01.588Z,19.98
2024-01-16T04:05:05.336Z,16.50
2024-01-16T04:08:08.204Z,17.80
2024-01-16T04:11:15.114Z,19.63
2024-01-16T04:14:18.468Z,16.98
2024-01-16T04:17:21.800Z,18.92
2024-01-16T04:20:24.816Z,18.23
2024-01-16T04:23:27.986Z,14.95
2024-01-16T04:26:31.001Z,19.38
2024-01-16T04:29:34.128Z,19.98
2024-01-16T04:32:37.235Z,17.45
2024-01-16T04:35:40.155Z,20.60
2024-01-16T04:38:43.300Z,19.60
2024-01-16T04:41:46.471Z,17.73
2024-01-16T04:44:49.345Z,17.55
2024-01-16T04:47:52.568Z,18.13
2024-01-16T04:50:55.799Z,16.90
2024-01-16T04:53:58.699Z,17.08
2024-01-16T04:57:01.437Z,18.17
2024-01-16T05:00:08.382Z,17.60
2024-01-16T05:03:11.264Z,17.98
2024-01-16T05:06:17.277Z,23.70
2024-01-16T05:09:23.150Z,17.77
2024-01-16T05:12:26.275Z,17.87
2024-01-16T05:15:28.926Z,19.70
2024-01-16T05:18:34.027Z,16.85
2024-01-16T05:21:36.758Z,17.43
2024-01-16T05:24:39.824Z,18.90
2024-01-16T05:27:44.712Z,17.35
2024-01-16T05:30:47.701Z,18.10
2024-01-16T05:33:50.877Z,20.15
2024-01-16T05:36:54.396Z,21.38
2024-01-16T05:39:57.632Z,21.42
2024-01-16T05:43:00.454Z,19.63
2024-01-16T05:46:03.478Z,17.52
2024-01-16T05:49:06.373Z,16.13
2024-01-16T05:52:09.084Z,18.37
2024-01-16T05:55:12.139Z,18.75
2024-01-16T05:58:15.650Z,20.10
2024-01-16T06:01:18.776Z,16.50
2024-01-16T06:04:22.032Z,15.88
2024-01-16T06:07:25.195Z,16.35
2024-01-16T06:10:28.017Z,15.80
2024-01-16T06:13:33.332Z,17.10
2024-01-16T06:16:37.182Z,17.80
2024-01-16T06:19:40.246Z,15.90
2024-01-16T06:22:43.028Z,20.87
2024-01-16T06:25:46.509Z,23.83
2024-01-16T06:28:49.328Z,23.90
2024-01-16T06:31:52.475Z,23.52
2024-01-16T06:34:55.489Z,26.30
2024-01-16T06:37:59.606Z,27.85
2024-01-16T06:41:03.109Z,19.40
2024-01-16T06:44:06.171Z,15.03
2024-01-16T06:47:09.273Z,14.10
2024-01-16T06:50:12.161Z,17.80
2024-01-16T06:53:17.259Z,18.27
2024-01-16T06:56:20.814Z,17.48
2024-01-16T06:59:24.176Z,15.85
2024-01-16T07:02:27.780Z,15.55
2024-01-16T07:05:31.344Z,17.92
2024-01-16T07:08:35.029Z,23.25
2024-01-16T07:11:39.910Z,21.83
2024-01-16T07:14:43.469Z,21.77
2024-01-16T07:17:46.712Z,20.15
2024-01-16T07:20:50.058Z,16.95
2024-01-16T07:23:53.159Z,16.60
2024-01-16T07:26:56.197Z,14.90
2024-01-16T07:30:00.167Z,13.75
2024-01-16T07:33:05.037Z,12.73
2024-01-16T07:36:09.636Z,11.10
2024-01-16T07:39:13.439Z,12.25
2024-01-16T07:42:16.772Z,15.27
2024-01-16T07:45:20.555Z,11.90
2024-01-16T07:48:26.426Z,16.20
2024-01-16T07:51:29.624Z,11.98
2024-01-16T07:54:32.717Z,12.17
2024-01-16T07:57:36.763Z,11.75
2024-01-16T08:00:45.818Z,11.88
2024-01-16T08:03:48.884Z,12.10
2024-01-16T08:06:53.686Z,19.85
2024-01-16T08:09:57.459Z,14.52
2024-01-16T08:13:00.695Z,15.13
2024-01-16T08:16:04.358Z,17.17
2024-01-16T08:19:08.009Z,15.38
2024-01-16T08:22:11.177Z,14.57
2024-01-16T08:25:14.086Z,14.83
2024-01-16T08:28:19.897Z,18.55
2024-01-16T08:31:25.095Z,14.68
2024-01-16T08:34:29.011Z,12.57
2024-01-16T08:37:35.931Z,13.05
2024-01-16T08:40:38.846Z,16.58
2024-01-16T08:43:42.559Z,19.08
2024-01-16T08:46:47.619Z,21.47
2024-01-16T08:49:52.552Z,22.08
2024-01-16T08:52:57.208Z,18.92
2024-01-16T08:56:09.074Z,17.47
2024-01-16T08:59:25.933Z,18.00
2024-01-16T09:02:30.396Z,23.77
2024-01-16T09:05:36.390Z,20.40
2024-01-16T09:08:40.087Z,18.27
2024-01-16T09:11:44.072Z,20.40
2024-01-16T09:14:48.007Z,16.73
2024-01-16T09:17:51.293Z,15.10
2024-01-16T09:20:56.568Z,18.77
2024-01-16T09:23:59.971Z,17.88
2024-01-16T09:27:07.948Z,17.03
2024-01-16T09:30:14.026Z,14.15
2024-01-16T09:33:21.003Z,14.07
2024-01-16T09:36:25.003Z,11.30
2024-01-16T09:39:27.983Z,11.25
2024-01-16T09:42:31.039Z,17.85
2024-01-16T09:45:38.396Z,16.08
2024-01-16T09:48:46.236Z,11.33
2024-01-16T09:51:49.203Z,12.05
2024-01-16T09:54:52.250Z,13.75
2024-01-16T09:57:56.446Z,13.37
2024-01-16T10:01:01.206Z,13.88
2024-01-16T10:04:04.757Z,13.57
2024-01-16T10:07:10.790Z,13.02
2024-01-16T10:10:13.917Z,13.80
2024-01-16T10:13:18.500Z,13.95
2024-01-16T10:16:25.832Z,16.23
2024-01-16T10:19:42.401Z,15.57
2024-01-16T10:22:59.971Z,24.35
2024-01-16T10:26:13.263Z,13.93
2024-01-16T10:29:16.478Z,14.43
2024-01-16T10:32:39.338Z,13.02
2024-01-16T10:35:42.894Z,13.02
2024-01-16T10:38:47.031Z,14.77
2024-01-16T10:41:58.361Z,15.07
2024-01-16T10:45:01.621Z,13.55
2024-01-16T10:48:09.670Z,15.25
2024-01-16T10:51:16.793Z,14.43
2024-01-16T10:54:21.046Z,13.38
2024-01-16T10:57:25.939Z,14.43
2024-01-16T11:00:30.159Z,18.00
2024-01-16T11:03:58.663Z,14.02
2024-01-16T11:07:04.577Z,17.08
2024-01-16T11:10:09.887Z,12.50
2024-01-16T11:13:14.656Z,11.13
2024-01-16T11:16:18.350Z,13.93
2024-01-16T11:19:37.901Z,11.05
2024-01-16T11:22:46.905Z,13.23
2024-01-16T11:25:49.818Z,11.65
2024-01-16T11:28:53.025Z,11.43
2024-01-16T11:32:13.307Z,13.30
2024-01-16T11:35:38.279Z,14.25
2024-01-16T11:38:41.844Z,13.25
2024-01-16T11:41:54.666Z,14.90
2024-01-16T11:44:57.971Z,15.27
2024-01-16T11:48:11.069Z,14.10
2024-01-16T11:51:25.189Z,15.77
2024-01-16T11:54:28.931Z,15.40
2024-01-16T11:57:48.622Z,17.25
2024-01-16T12:00:54.841Z,14.98
2024-01-16T12:04:07.337Z,16.53
2024-01-16T12:07:10.495Z,17.17
2024-01-16T12:10:13.772Z,16.00
2024-01-16T12:13:17.219Z,14.30
2024-01-16T12:16:21.632Z,12.85
2024-01-16T12:19:26.151Z,13.05
2024-01-16T12:22:29.884Z,13.93
2024-01-16T12:26:00.973Z,13.47
2024-01-16T12:29:01.564Z,15.30
2024-01-16T12:32:16.575Z,13.75
2024-01-16T12:35:24.172Z,16.10
2024-01-16T12:38:28.049Z,14.00
2024-01-16T12:41:42.584Z,13.85
2024-01-16T12:44:48.358Z,11.85
2024-01-16T12:47:54.932Z,13.45
2024-01-16T12:51:04.756Z,15.50
2024-01-16T12:54:14.226Z,16.55
2024-01-16T12:57:23.759Z,20.93
2024-01-16T13:00:27.155Z,15.52
2024-01-16T13:03:31.603Z,17.85
2024-01-16T13:06:35.670Z,22.37
2024-01-16T13:09:39.241Z,24.15
2024-01-16T13:12:43.370Z,33.13
2024-01-16T13:15:46.885Z,22.52
2024-01-16T13:19:02.705Z,17.20
2024-01-16T13:22:05.932Z,18.90
2024-01-16T13:25:09.560Z,20.00
2024-01-16T13:28:16.963Z,25.10
2024-01-16T13:31:19.766Z,19.77
2024-01-16T13:34:26.538Z,28.50
2024-01-16T13:37:29.881Z,23.87
2024-01-16T13:40:33.330Z,29.95
2024-01-16T13:43:36.711Z,23.25
2024-01-16T13:49:46.440Z,33.95
2024-01-16T13:52:49.837Z,49.25
2024-01-16T13:55:52.894Z,53.17
2024-01-16T13:58:55.623Z,61.10
2024-01-16T14:01:58.619Z,72.47
2024-01-16T14:05:01.542Z,23.58
2024-01-16T14:08:04.873Z,21.93
2024-01-16T14:11:07.621Z,21.92
2024-01-16T14:14:12.569Z,23.33
2024-01-16T14:17:16.425Z,30.23
2024-01-16T14:20:27.147Z,31.75
2024-01-16T14:23:30.984Z,31.77
2024-01-16T14:26:34.219Z,28.90
2024-01-16T14:29:41.563Z,29.50
2024-01-16T14:32:46.084Z,30.38
2024-01-16T14:35:49.936Z,30.30
2024-01-16T14:38:53.029Z,33.73
2024-01-16T14:41:56.203Z,30.77
2024-01-16T14:44:59.236Z,29.80
2024-01-16T14:48:04.820Z,27.27
2024-01-16T14:51:07.982Z,26.92
2024-01-16T14:54:10.982Z,27.55
2024-01-16T14:57:15.024Z,23.70
2024-01-16T15:00:28.278Z,25.70
2024-01-16T15:03:31.216Z,22.67
2024-01-16T15:06:35.500Z,27.25
2024-01-16T15:09:38.942Z,22.67
2024-01-16T15:12:43.391Z,20.35
2024-01-16T15:15:46.506Z,22.65
2024-01-16T15:18:49.656Z,21.23
2024-01-16T15:21:52.932Z,23.75
2024-01-16T15:24:56.206Z,25.42
2024-01-16T15:27:59.370Z,26.45
2024-01-16T15:31:09.011Z,28.70
2024-01-16T15:34:15.775Z,25.90
2024-01-16T15:37:19.964Z,32.72
2024-01-16T15:40:23.760Z,53.40
2024-01-16T15:43:26.738Z,44.55
2024-01-16T15:46:29.728Z,39.40
2024-01-16T15:49:33.208Z,35.45
2024-01-16T15:52:36.748Z,24.63
2024-01-16T15:55:40.679Z,37.08
2024-01-16T15:58:44.114Z,53.88
2024-01-16T16:01:47.264Z,38.47
2024-01-16T16:04:50.193Z,39.58
2024-01-16T16:07:53.157Z,39.45
2024-01-16T16:10:58.102Z,33.90
2024-01-16T16:14:01.260Z,43.35
2024-01-16T16:17:05.749Z,39.40
2024-01-16T16:20:11.058Z,32.20
2024-01-16T16:23:14.156Z,26.60
2024-01-16T16:26:41.272Z,44.90
2024-01-16T16:29:44.750Z,51.97
2024-01-16T16:32:48.014Z,44.57
2024-01-16T16:35:50.932Z,35.38
2024-01-16T16:38:55.333Z,49.95
2024-01-16T16:41:58.286Z,51.33
2024-01-16T16:45:01.479Z,56.40
2024-01-16T16:48:05.183Z,51.97
2024-01-16T16:51:13.821Z,29.38
2024-01-16T16:54:16.863Z,46.38
2024-01-16T16:57:19.863Z,57.88
2024-01-16T17:00:23.686Z,57.38
2024-01-16T17:03:26.945Z,54.70
2024-01-16T17:06:29.893Z,58.22
2024-01-16T17:09:32.781Z,49.75
2024-01-16T17:12:35.717Z,34.20
2024-01-16T17:15:38.497Z,69.38
2024-01-16T17:18:44.152Z,61.90
2024-01-16T17:21:47.062Z,62.92
2024-01-16T17:24:49.978Z,39.20
2024-01-16T17:27:52.908Z,73.00
2024-01-16T17:30:57.205Z,37.65
2024-01-16T17:34:00.435Z,70.67
2024-01-16T17:37:04.077Z,59.33
2024-01-16T17:40:13.718Z,59.20
2024-01-16T17:43:17.083Z,79.40
2024-01-16T17:46:20.591Z,66.47
2024-01-16T17:49:23.512Z,96.22
2024-01-16T17:52:26.944Z,114.30
2024-01-16T17:55:34.389Z,81.80
2024-01-16T17:58:37.543Z,62.65
2024-01-16T18:01:40.496Z,67.63
2024-01-16T18:04:43.635Z,101.53
2024-01-16T18:07:46.844Z,92.97
2024-01-16T18:10:54.643Z,84.57
2024-01-16T18:13:57.464Z,111.73
2024-01-16T18:17:02.325Z,77.35
2024-01-16T18:20:10.814Z,56.53
2024-01-16T18:23:14.060Z,60.58
2024-01-16T18:26:17.199Z,48.88
2024-01-16T18:29:23.531Z,63.58
2024-01-16T18:32:26.778Z,67.55
2024-01-16T18:35:29.889Z,37.37
2024-01-16T18:38:32.919Z,41.17
2024-01-16T18:41:35.871Z,39.45
2024-01-16T18:44:39.602Z,46.10
2024-01-16T18:47:44.944Z,38.72
2024-01-16T18:50:52.294Z,42.90
2024-01-16T18:53:56.559Z,75.57
2024-01-16T18:57:02.734Z,61.67
2024-01-16T19:00:14.892Z,38.40
2024-01-16T19:03:20.179Z,41.22
2024-01-16T19:06:24.194Z,42.23
2024-01-16T19:09:33.466Z,61.30
2024-01-16T19:12:37.239Z,55.22
2024-01-16T19:15:40.497Z,81.27
2024-01-16T19:18:44.121Z,32.53
2024-01-16T19:21:47.930Z,45.75
2024-01-16T19:24:51.411Z,80.80
2024-01-16T19:27:55.983Z,52.08
2024-01-16T19:31:00.730Z,103.15
2024-01-16T19:34:05.968Z,85.88
2024-01-16T19:37:09.375Z,76.23
2024-01-16T19:40:14.041Z,60.22
2024-01-16T19:43:18.769Z,114.68
2024-01-16T19:46:22.093Z,55.70
2024-01-16T19:49:25.383Z,69.80
2024-01-16T19:52:28.282Z,65.80
2024-01-16T19:55:32.299Z,53.78
2024-01-16T19:58:39.095Z,48.95
2024-01-16T20:01:42.707Z,54.42
2024-01-16T20:04:45.900Z,62.85
2024-01-16T20:07:49.608Z,63.13
2024-01-16T20:10:52.875Z,63.75
2024-01-16T20:13:56.081Z,64.18
2024-01-16T20:17:01.425Z,74.90
2024-01-16T20:20:06.954Z,36.83
2024-01-16T20:23:10.113Z,38.97
2024-01-16T20:26:13.235Z,35.53
2024-01-16T20:29:16.117Z,44.15
2024-01-16T20:32:19.025Z,45.42
2024-01-16T20:35:22.713Z,51.30
2024-01-16T20:38:26.222Z,68.80
2024-01-16T20:41:29.258Z,46.92
2024-01-16T20:44:34.338Z,61.95
2024-01-16T20:47:38.713Z,64.70
2024-01-16T20:50:42.449Z,41.72
2024-01-16T20:53:45.369Z,45.60
2024-01-16T20:56:49.209Z,53.25
2024-01-16T20:59:52.515Z,41.85
2024-01-16T21:02:57.681Z,41.28
2024-01-16T21:06:03.406Z,64.85
2024-01-16T21:09:07.932Z,71.97
2024-01-16T21:12:11.085Z,51.63
2024-01-16T21:15:14.448Z,42.38
2024-01-16T21:18:17.707Z,51.93
2024-01-16T21:21:20.847Z,50.83
2024-01-16T21:24:24.017Z,38.58
2024-01-16T21:27:26.895Z,40.22
2024-01-16T21:30:30.003Z,43.85
2024-01-16T21:33:33.022Z,46.90
2024-01-16T21:36:36.165Z,43.72
2024-01-16T21:39:39.214Z,50.37
2024-01-16T21:42:42.300Z,64.60
2024-01-16T21:45:45.014Z,37.92
2024-01-16T21:48:48.256Z,46.87
2024-01-16T21:51:51.551Z,39.28
2024-01-16T21:54:54.366Z,57.25
2024-01-16T21:57:57.440Z,68.72
2024-01-16T22:01:00.339Z,44.40
2024-01-16T22:04:04.647Z,54.63
2024-01-16T22:07:07.413Z,59.78
2024-01-16T22:10:10.495Z,58.97
2024-01-16T22:13:13.481Z,49.28
2024-01-16T22:16:16.556Z,65.80
2024-01-16T22:19:20.370Z,58.87
2024-01-16T22:22:24.698Z,54.55
2024-01-16T22:25:27.736Z,57.33
2024-01-16T22:28:30.564Z,66.28
2024-01-16T22:31:33.982Z,44.72
2024-01-16T22:34:37.003Z,39.95
2024-01-16T22:37:44.492Z,54.08
2024-01-16T22:40:48.918Z,37.37
2024-01-16T22:43:51.656Z,38.67
2024-01-16T22:46:57.820Z,38.38
2024-01-16T22:50:00.530Z,45.17
2024-01-16T22:53:04.049Z,32.30
2024-01-16T22:56:07.146Z,41.83
2024-01-16T22:59:10.660Z,49.90
2024-01-16T23:02:13.716Z,42.17
2024-01-16T23:05:21.509Z,45.15
2024-01-16T23:08:24.511Z,49.15
2024-01-16T23:11:27.644Z,39.17
2024-01-16T23:14:30.711Z,44.92
2024-01-16T23:17:35.274Z,45.25
2024-01-16T23:20:38.071Z,48.17
2024-01-16T23:23:45.445Z,47.42
2024-01-16T23:26:48.588Z,36.40
2024-01-16T23:29:51.355Z,40.00
2024-01-16T23:32:54.201Z,31.52
2024-01-16T23:35:58.577Z,29.45
2024-01-16T23:39:01.782Z,49.53
2024-01-16T23:42:05.365Z,64.67
2024-01-16T23:45:17.334Z,67.63
2024-01-16T23:48:24.208Z,85.20
2024-01-16T23:51:27.256Z,54.07
2024-01-16T23:54:30.284Z,48.50
2024-01-16T23:57:33.230Z,52.40
